Portada
METAR-TAF:

METAR-TAF

Aeroports :

Blanc-Sablon, Quebec, Canadà

latitud: 51-27N, longitud: 057-11W, altitud: 30 m

Observació

L'informe es va fer fa 1 hora i 9 minuts, a les 00:00 UTC
Vent 4 kt del Nord-Est
Temperatura 4°C
Humitat 75%
Pressió 1027 hPa
Visibilitat: 24.1 km
Escasses núvols a una alçada de 11000 ft
Cel ennuvolat a una alçada de 12000 ft
Cel ennuvolat a una alçada de 13000 ft

METAR: CYBX 220000Z 04004KT 15SM FEW110 BKN120 BKN130 04/00 A3034 RMK AC2AC3AC2 SLP279

Hora: 21:09 (01:09 UTC)

Pronòstic

L'informe es va fer fa 5 hores i 27 minuts, a les 19:42 UTC
Pronòstic vàlid del 21 a les 20 UTC al 22 a les 04 UTC
Vent 5 kt del Oest
Visibilitat: 10 km
Cel ennuvolat a una alçada de 15000 ft
A partir de les 22 a les 0200 UTC
Vent 5 kt del Sud/Sud-Est
Visibilitat: 10 km
Cel ennuvolat a una alçada de 8000 ft

TAF: CYBX 211942Z 2120/2204 27005KT P6SM BKN150 FM220200 15005KT P6SM BKN080 RMK NXT FCST BY 220200Z

Observacions i pronòstics meteorològics de més de 4000 aeroports (METAR i TAF).

Les estacions disponibles són els punts grocs i vermells al mapa.

Posi el ratolí al punt desitjat per veure el nom de l'estació.

Feu clic per veure les observacions i els pronòstics meteorològics.

Per canviar el mapa: feu clic els botons verds amb una creu de color negre per apropar; al botó verd amb un guió per allunyar la imatge; o en les fletxes verdes per a mapes adjacents.


METAR-TAF: